Time,TemperatureF,DewpointF,PressureIn,WindDirection,WindDirectionDegrees,WindSpeedMPH,WindSpeedGustMPH,Humidity,HourlyPrecipIn,Conditions,Clouds,dailyrainin,SoftwareType,DateUTC
2013-03-03 00:10:00,28.9,24.0,29.74,East,86,0.0,0.0,82,0.00,,,0.00,weatherlink.com 1.10,2013-03-03 05:10:00,
2013-03-03 00:25:00,28.8,24.0,29.74,East,86,0.0,0.0,82,0.00,,,0.00,weatherlink.com 1.10,2013-03-03 05:25:00,
2013-03-03 00:40:00,28.8,25.0,29.74,East,86,0.0,0.0,85,0.00,,,0.00,weatherlink.com 1.10,2013-03-03 05:40:00,
2013-03-03 00:55:00,28.7,25.0,29.74,East,86,0.0,1.0,86,0.00,,,0.00,weatherlink.com 1.10,2013-03-03 05:55:00,
2013-03-03 01:10:00,28.6,25.0,29.74,East,86,0.0,0.0,85,0.00,,,0.00,weatherlink.com 1.10,2013-03-03 06:10:00,
2013-03-03 01:25:00,28.5,25.0,29.74,East,86,0.0,0.0,86,0.00,,,0.00,weatherlink.com 1.10,2013-03-03 06:25:00,
2013-03-03 01:40:00,28.5,25.0,29.74,East,86,0.0,0.0,85,0.00,,,0.00,weatherlink.com 1.10,2013-03-03 06:40:00,
2013-03-03 01:55:00,28.5,25.0,29.74,East,86,0.0,0.0,85,0.00,,,0.00,weatherlink.com 1.10,2013-03-03 06:55:00,
2013-03-03 02:10:00,28.5,24.0,29.73,East,86,0.0,0.0,84,0.00,,,0.00,weatherlink.com 1.10,2013-03-03 07:10:00,
2013-03-03 02:25:00,28.8,21.0,29.73,SSW,212,0.0,1.0,73,0.00,,,0.00,weatherlink.com 1.10,2013-03-03 07:25:00,
2013-03-03 02:40:00,28.7,20.0,29.73,WSW,248,0.0,0.0,71,0.00,,,0.00,weatherlink.com 1.10,2013-03-03 07:40:00,
2013-03-03 02:55:00,28.6,20.0,29.72,WNW,286,0.0,1.0,70,0.00,,,0.00,weatherlink.com 1.10,2013-03-03 07:55:00,
2013-03-03 03:10:00,28.5,20.0,29.72,SSE,156,0.0,2.0,70,0.00,,,0.00,weatherlink.com 1.10,2013-03-03 08:10:00,
2013-03-03 03:25:00,28.3,19.0,29.72,West,262,0.0,1.0,69,0.00,,,0.00,weatherlink.com 1.10,2013-03-03 08:25:00,
2013-03-03 03:40:00,28.1,19.0,29.72,WSW,246,0.0,1.0,70,0.00,,,0.00,weatherlink.com 1.10,2013-03-03 08:40:00,
2013-03-03 03:55:00,28.0,19.0,29.72,East,99,0.0,1.0,70,0.00,,,0.00,weatherlink.com 1.10,2013-03-03 08:55:00,
2013-03-03 04:10:00,27.9,19.0,29.72,East,81,0.0,2.0,69,0.00,,,0.00,weatherlink.com 1.10,2013-03-03 09:10:00,
2013-03-03 04:25:00,27.8,18.0,29.73,ESE,122,0.0,3.0,68,0.00,,,0.00,weatherlink.com 1.10,2013-03-03 09:25:00,
2013-03-03 04:40:00,27.5,18.0,29.73,East,79,0.0,2.0,67,0.00,,,0.00,weatherlink.com 1.10,2013-03-03 09:40:00,
2013-03-03 04:55:00,27.3,18.0,29.73,ESE,115,0.0,1.0,68,0.00,,,0.00,weatherlink.com 1.10,2013-03-03 09:55:00,
2013-03-03 05:10:00,27.0,18.0,29.73,WNW,288,0.0,1.0,69,0.00,,,0.00,weatherlink.com 1.10,2013-03-03 10:10:00,
2013-03-03 05:25:00,26.8,18.0,29.73,SSW,194,0.0,0.0,70,0.00,,,0.00,weatherlink.com 1.10,2013-03-03 10:25:00,
2013-03-03 05:40:00,26.7,17.0,29.74,WSW,255,0.0,1.0,68,0.00,,,0.00,weatherlink.com 1.10,2013-03-03 10:40:00,
2013-03-03 05:55:00,26.7,17.0,29.74,South,174,0.0,1.0,68,0.00,,,0.00,weatherlink.com 1.10,2013-03-03 10:55:00,
2013-03-03 06:10:00,26.6,17.0,29.74,West,280,0.0,2.0,68,0.00,,,0.00,weatherlink.com 1.10,2013-03-03 11:10:00,
2013-03-03 06:25:00,26.3,17.0,29.74,ENE,70,0.0,1.0,69,0.00,,,0.00,weatherlink.com 1.10,2013-03-03 11:25:00,
2013-03-03 06:40:00,26.3,17.0,29.74,SSW,201,0.0,2.0,68,0.00,,,0.00,weatherlink.com 1.10,2013-03-03 11:40:00,
2013-03-03 06:55:00,26.3,17.0,29.75,NNW,344,0.0,2.0,67,0.00,,,0.00,weatherlink.com 1.10,2013-03-03 11:55:00,
2013-03-03 07:10:00,26.4,17.0,29.75,WSW,249,0.0,3.0,67,0.00,,,0.00,weatherlink.com 1.10,2013-03-03 12:10:00,
2013-03-03 07:25:00,26.7,17.0,29.75,WSW,243,0.0,4.0,68,0.00,,,0.00,weatherlink.com 1.10,2013-03-03 12:25:00,
2013-03-03 07:40:00,27.0,17.0,29.75,ESE,102,0.0,1.0,67,0.00,,,0.00,weatherlink.com 1.10,2013-03-03 12:40:00,
2013-03-03 07:56:00,27.5,17.0,29.75,SW,233,0.0,2.0,66,0.00,,,0.00,weatherlink.com 1.10,2013-03-03 12:56:00,
2013-03-03 08:11:00,27.7,18.0,29.75,NNE,12,0.0,1.0,66,0.00,,,0.00,weatherlink.com 1.10,2013-03-03 13:11:00,
2013-03-03 08:26:00,28.1,17.0,29.75,East,82,0.0,6.0,64,0.00,,,0.00,weatherlink.com 1.10,2013-03-03 13:26:00,
2013-03-03 08:41:00,28.3,17.0,29.75,ESE,109,0.0,3.0,63,0.00,,,0.00,weatherlink.com 1.10,2013-03-03 13:41:00,
2013-03-03 08:56:00,28.5,17.0,29.74,NW,319,0.0,4.0,62,0.00,,,0.00,weatherlink.com 1.10,2013-03-03 13:56:00,
2013-03-03 09:11:00,29.2,18.0,29.74,ENE,77,0.0,2.0,63,0.00,,,0.00,weatherlink.com 1.10,2013-03-03 14:11:00,
2013-03-03 09:26:00,30.2,19.0,29.74,South,191,0.0,1.0,63,0.00,,,0.00,weatherlink.com 1.10,2013-03-03 14:26:00,
2013-03-03 09:41:00,31.8,19.0,29.74,NW,319,0.0,2.0,60,0.00,,,0.00,weatherlink.com 1.10,2013-03-03 14:41:00,
2013-03-03 09:56:00,33.9,19.0,29.73,SSE,158,0.0,1.0,55,0.00,,,0.00,weatherlink.com 1.10,2013-03-03 14:56:00,
2013-03-03 10:11:00,34.9,19.0,29.72,ESE,120,0.0,1.0,52,0.00,,,0.00,weatherlink.com 1.10,2013-03-03 15:11:00,
2013-03-03 10:26:00,36.2,19.0,29.72,SW,221,0.0,2.0,50,0.00,,,0.00,weatherlink.com 1.10,2013-03-03 15:26:00,
2013-03-03 10:41:00,35.8,18.0,29.71,East,97,1.0,2.0,48,0.00,,,0.00,weatherlink.com 1.10,2013-03-03 15:41:00,
2013-03-03 10:56:00,37.0,20.0,29.71,SW,218,0.0,1.0,50,0.00,,,0.00,weatherlink.com 1.10,2013-03-03 15:56:00,
2013-03-03 11:11:00,37.4,21.0,29.71,WSW,252,0.0,2.0,52,0.00,,,0.00,weatherlink.com 1.10,2013-03-03 16:11:00,
2013-03-03 11:26:00,35.7,20.0,29.71,East,95,0.0,3.0,54,0.00,,,0.00,weatherlink.com 1.10,2013-03-03 16:26:00,
2013-03-03 11:41:00,35.3,21.0,29.71,ENE,77,0.0,1.0,56,0.00,,,0.00,weatherlink.com 1.10,2013-03-03 16:41:00,
2013-03-03 11:56:00,35.5,20.0,29.71,West,264,0.0,1.0,53,0.00,,,0.00,weatherlink.com 1.10,2013-03-03 16:56:00,
2013-03-03 12:11:00,35.3,20.0,29.71,East,82,0.0,2.0,54,0.00,,,0.00,weatherlink.com 1.10,2013-03-03 17:11:00,
2013-03-03 12:26:00,35.3,21.0,29.70,SSE,150,0.0,3.0,57,0.00,,,0.00,weatherlink.com 1.10,2013-03-03 17:26:00,
2013-03-03 12:41:00,35.1,21.0,29.70,NE,37,0.0,2.0,58,0.00,,,0.00,weatherlink.com 1.10,2013-03-03 17:41:00,
2013-03-03 12:56:00,34.4,23.0,29.70,SE,127,1.0,2.0,63,0.00,,,0.00,weatherlink.com 1.10,2013-03-03 17:56:00,
2013-03-03 13:11:00,33.8,23.0,29.70,East,101,2.0,3.0,65,0.00,,,0.00,weatherlink.com 1.10,2013-03-03 18:11:00,
2013-03-03 13:26:00,33.8,22.0,29.69,East,88,0.0,3.0,62,0.00,,,0.00,weatherlink.com 1.10,2013-03-03 18:26:00,
2013-03-03 13:41:00,33.7,25.0,29.69,ENE,68,0.0,3.0,69,0.00,,,0.00,weatherlink.com 1.10,2013-03-03 18:41:00,
2013-03-03 13:56:00,33.6,26.0,29.69,ENE,77,0.0,3.0,73,0.00,,,0.00,weatherlink.com 1.10,2013-03-03 18:56:00,
2013-03-03 14:11:00,33.5,26.0,29.69,SW,236,0.0,2.0,73,0.00,,,0.00,weatherlink.com 1.10,2013-03-03 19:11:00,
2013-03-03 14:26:00,33.1,25.0,29.69,SSW,196,0.0,3.0,73,0.00,,,0.00,weatherlink.com 1.10,2013-03-03 19:26:00,
2013-03-03 14:41:00,34.0,25.0,29.69,East,79,0.0,2.0,70,0.00,,,0.00,weatherlink.com 1.10,2013-03-03 19:41:00,
2013-03-03 14:56:00,34.3,25.0,29.69,SE,130,0.0,1.0,70,0.00,,,0.00,weatherlink.com 1.10,2013-03-03 19:56:00,
2013-03-03 15:11:00,34.3,26.0,29.69,SE,134,0.0,1.0,72,0.00,,,0.00,weatherlink.com 1.10,2013-03-03 20:11:00,
2013-03-03 15:26:00,34.3,27.0,29.69,ENE,75,0.0,1.0,74,0.00,,,0.00,weatherlink.com 1.10,2013-03-03 20:26:00,
2013-03-03 15:41:00,34.0,27.0,29.69,West,281,1.0,1.0,74,0.00,,,0.00,weatherlink.com 1.10,2013-03-03 20:41:00,
2013-03-03 15:56:00,33.8,26.0,29.69,SSW,207,0.0,1.0,74,0.00,,,0.00,weatherlink.com 1.10,2013-03-03 20:56:00,
2013-03-03 16:11:00,33.4,26.0,29.69,ESE,123,0.0,0.0,75,0.00,,,0.00,weatherlink.com 1.10,2013-03-03 21:11:00,
2013-03-03 16:26:00,33.9,26.0,29.69,SE,141,0.0,0.0,74,0.00,,,0.00,weatherlink.com 1.10,2013-03-03 21:26:00,
2013-03-03 16:41:00,34.1,26.0,29.69,ENE,63,0.0,1.0,71,0.00,,,0.00,weatherlink.com 1.10,2013-03-03 21:41:00,
2013-03-03 16:56:00,34.0,25.0,29.69,ENE,72,2.0,2.0,69,0.00,,,0.00,weatherlink.com 1.10,2013-03-03 21:56:00,
2013-03-03 17:11:00,33.7,26.0,29.69,SSE,148,0.0,0.0,72,0.00,,,0.00,weatherlink.com 1.10,2013-03-03 22:11:00,
2013-03-03 17:26:00,33.5,24.0,29.70,West,273,0.0,1.0,69,0.00,,,0.00,weatherlink.com 1.10,2013-03-03 22:26:00,
2013-03-03 17:41:00,33.4,23.0,29.70,WSW,253,0.0,1.0,65,0.00,,,0.00,weatherlink.com 1.10,2013-03-03 22:41:00,
2013-03-03 17:56:00,33.0,22.0,29.70,ENE,70,0.0,1.0,63,0.00,,,0.00,weatherlink.com 1.10,2013-03-03 22:56:00,
2013-03-03 18:11:00,32.6,21.0,29.71,SE,134,1.0,2.0,62,0.00,,,0.00,weatherlink.com 1.10,2013-03-03 23:11:00,
2013-03-03 18:26:00,32.1,21.0,29.71,SW,215,0.0,1.0,63,0.00,,,0.00,weatherlink.com 1.10,2013-03-03 23:26:00,
2013-03-03 18:41:00,31.6,20.0,29.71,ESE,108,2.0,4.0,63,0.00,,,0.00,weatherlink.com 1.10,2013-03-03 23:41:00,
2013-03-03 18:56:00,31.2,20.0,29.72,East,89,0.0,3.0,64,0.00,,,0.00,weatherlink.com 1.10,2013-03-03 23:56:00,
2013-03-03 19:11:00,30.8,20.0,29.72,East,84,0.0,4.0,64,0.00,,,0.00,weatherlink.com 1.10,2013-03-04 00:11:00,
2013-03-03 19:26:00,30.5,20.0,29.73,WNW,301,0.0,4.0,64,0.00,,,0.00,weatherlink.com 1.10,2013-03-04 00:26:00,
2013-03-03 19:41:00,30.4,19.0,29.73,West,262,1.0,2.0,64,0.00,,,0.00,weatherlink.com 1.10,2013-03-04 00:41:00,
2013-03-03 19:56:00,30.3,19.0,29.74,SE,141,1.0,3.0,64,0.00,,,0.00,weatherlink.com 1.10,2013-03-04 00:56:00,
2013-03-03 20:11:00,30.2,19.0,29.74,WSW,243,0.0,2.0,63,0.00,,,0.00,weatherlink.com 1.10,2013-03-04 01:11:00,
2013-03-03 20:26:00,30.1,19.0,29.75,ENE,70,0.0,3.0,64,0.00,,,0.00,weatherlink.com 1.10,2013-03-04 01:26:00,
2013-03-03 20:41:00,30.1,19.0,29.75,NNW,331,0.0,2.0,64,0.00,,,0.00,weatherlink.com 1.10,2013-03-04 01:41:00,
2013-03-03 20:57:00,30.0,19.0,29.75,West,280,0.0,2.0,64,0.00,,,0.00,weatherlink.com 1.10,2013-03-04 01:57:00,
2013-03-03 21:12:00,29.6,19.0,29.76,SSW,210,0.0,4.0,64,0.00,,,0.00,weatherlink.com 1.10,2013-03-04 02:12:00,
2013-03-03 21:27:00,29.4,19.0,29.76,SW,225,0.0,3.0,66,0.00,,,0.00,weatherlink.com 1.10,2013-03-04 02:27:00,
2013-03-03 21:42:00,28.9,18.0,29.76,NE,56,0.0,2.0,65,0.00,,,0.00,weatherlink.com 1.10,2013-03-04 02:42:00,
2013-03-03 21:57:00,28.6,18.0,29.76,SE,139,0.0,4.0,65,0.00,,,0.00,weatherlink.com 1.10,2013-03-04 02:57:00,
2013-03-03 22:12:00,28.6,18.0,29.76,SSW,195,2.0,4.0,66,0.00,,,0.00,weatherlink.com 1.10,2013-03-04 03:12:00,
2013-03-03 22:27:00,28.5,18.0,29.75,ESE,105,5.0,5.0,65,0.00,,,0.00,weatherlink.com 1.10,2013-03-04 03:27:00,
2013-03-03 22:42:00,28.4,18.0,29.75,SSW,212,0.0,4.0,64,0.00,,,0.00,weatherlink.com 1.10,2013-03-04 03:42:00,
2013-03-03 22:57:00,28.3,17.0,29.75,SW,231,0.0,4.0,64,0.00,,,0.00,weatherlink.com 1.10,2013-03-04 03:57:00,
2013-03-03 23:12:00,28.1,17.0,29.75,SSW,210,0.0,3.0,64,0.00,,,0.00,weatherlink.com 1.10,2013-03-04 04:12:00,
2013-03-03 23:27:00,28.1,18.0,29.75,SSE,156,1.0,1.0,65,0.00,,,0.00,weatherlink.com 1.10,2013-03-04 04:27:00,
2013-03-03 23:42:00,28.0,18.0,29.75,NE,44,1.0,2.0,65,0.00,,,0.00,weatherlink.com 1.10,2013-03-04 04:42:00,
2013-03-03 23:57:00,28.0,17.0,29.75,SW,231,1.0,6.0,64,0.00,,,0.00,weatherlink.com 1.10,2013-03-04 04:57:00,